createdAt,value
2018-08-04T00:02:13.531Z,100203.02
2018-08-04T00:04:44.484Z,100203.19
2018-08-04T00:07:15.481Z,100200.06
2018-08-04T00:09:46.466Z,100193.69
2018-08-04T00:12:17.538Z,100189.54
2018-08-04T00:14:48.477Z,100190.90
2018-08-04T00:17:19.488Z,100196.47
2018-08-04T00:19:50.634Z,100193.93
2018-08-04T00:22:21.651Z,100183.58
2018-08-04T00:24:52.553Z,100190.80
2018-08-04T00:27:23.505Z,100186.02
2018-08-04T00:29:54.493Z,100182.53
2018-08-04T00:32:25.529Z,100185.84
2018-08-04T00:34:56.522Z,100188.98
2018-08-04T00:37:27.489Z,100191.28
2018-08-04T00:52:11.384Z,100178.41
2018-08-04T00:54:42.492Z,100174.62
2018-08-04T00:57:13.541Z,100170.09
2018-08-04T00:59:44.522Z,100168.32
2018-08-04T01:02:15.480Z,100164.49
2018-08-04T01:04:46.517Z,100166.54
2018-08-04T01:07:17.489Z,100171.12
2018-08-04T01:09:48.541Z,100173.66
2018-08-04T01:12:19.490Z,100173.29
2018-08-04T01:14:50.529Z,100174.09
2018-08-04T01:17:21.501Z,100172.33
2018-08-04T01:19:52.559Z,100178.95
2018-08-04T01:22:23.487Z,100176.16
2018-08-04T01:24:54.645Z,100174.57
2018-08-04T01:27:25.553Z,100172.98
2018-08-04T01:29:56.514Z,100168.88
2018-08-04T01:32:27.534Z,100171.83
2018-08-04T01:34:58.694Z,100165.28
2018-08-04T01:37:29.549Z,100165.28
2018-08-04T01:40:00.515Z,100166.04
2018-08-04T01:42:31.521Z,100160.77
2018-08-04T01:45:02.501Z,100160.25
2018-08-04T01:47:33.495Z,100161.73
2018-08-04T01:50:04.518Z,100158.70
2018-08-04T01:52:35.550Z,100159.09
2018-08-04T01:55:06.535Z,100156.30
2018-08-04T01:57:37.533Z,100161.02
2018-08-04T02:00:09.023Z,100155.03
2018-08-04T02:02:40.391Z,100150.05
2018-08-04T02:05:11.607Z,100157.91
2018-08-04T02:07:42.518Z,100151.88
2018-08-04T02:10:13.521Z,100155.19
2018-08-04T02:12:44.506Z,100151.88
2018-08-04T02:15:15.549Z,100154.75
2018-08-04T02:17:46.502Z,100151.05
2018-08-04T02:20:17.528Z,100150.16
2018-08-04T02:22:48.494Z,100146.33
2018-08-04T02:25:19.519Z,100147.84
2018-08-04T02:27:50.656Z,100149.20
2018-08-04T02:30:21.585Z,100145.77
2018-08-04T02:32:52.557Z,100148.01
2018-08-04T02:35:23.523Z,100149.21
2018-08-04T02:37:54.526Z,100142.67
2018-08-04T02:40:25.505Z,100150.41
2018-08-04T02:42:56.534Z,100149.05
2018-08-04T02:45:27.514Z,100147.54
2018-08-04T02:47:58.532Z,100147.44
2018-08-04T02:50:29.514Z,100140.03
2018-08-04T02:53:00.501Z,100144.42
2018-08-04T02:55:31.509Z,100135.73
2018-08-04T02:58:02.457Z,100139.64
2018-08-04T03:00:33.549Z,100139.91
2018-08-04T03:03:04.547Z,100134.41
2018-08-04T03:05:35.547Z,100135.53
2018-08-04T03:08:06.563Z,100136.44
2018-08-04T03:10:37.490Z,100144.21
2018-08-04T03:13:08.475Z,100147.94
2018-08-04T03:15:39.482Z,100148.63
2018-08-04T03:18:10.498Z,100149.63
2018-08-04T03:20:41.500Z,100151.45
2018-08-04T03:23:12.559Z,100148.30
2018-08-04T03:25:43.489Z,100144.59
2018-08-04T03:28:14.474Z,100145.72
2018-08-04T03:30:45.496Z,100152.25
2018-08-04T03:33:16.516Z,100150.28
2018-08-04T03:35:47.501Z,100149.39
2018-08-04T03:38:18.495Z,100151.12
2018-08-04T03:40:49.510Z,100157.66
2018-08-04T03:43:20.457Z,100154.34
2018-08-04T03:45:51.620Z,100145.59
2018-08-04T03:48:22.486Z,100151.44
2018-08-04T03:50:53.605Z,100157.00
2018-08-04T03:53:24.573Z,100163.69
2018-08-04T03:55:55.557Z,100161.50
2018-08-04T03:58:26.521Z,100159.86
2018-08-04T04:00:57.508Z,100157.67
2018-08-04T04:03:28.494Z,100158.65
2018-08-04T04:05:59.540Z,100159.39
2018-08-04T04:08:31.484Z,100163.60
2018-08-04T04:11:02.585Z,100159.63
2018-08-04T04:13:33.496Z,100168.64
2018-08-04T04:16:04.574Z,100168.58
2018-08-04T04:18:35.490Z,100158.79
2018-08-04T04:21:06.533Z,100173.80
2018-08-04T04:23:37.512Z,100165.39
2018-08-04T04:26:08.569Z,100167.82
2018-08-04T04:28:39.529Z,100167.83
2018-08-04T04:31:10.494Z,100168.34
2018-08-04T04:33:41.518Z,100170.67
2018-08-04T04:36:12.481Z,100168.58
2018-08-04T04:38:43.490Z,100169.98
2018-08-04T04:41:14.500Z,100177.45
2018-08-04T04:43:45.572Z,100173.73
2018-08-04T04:46:16.524Z,100180.00
2018-08-04T04:48:48.294Z,100176.69
2018-08-04T04:51:19.367Z,100178.48
2018-08-04T04:53:50.366Z,100182.66
2018-08-04T04:56:21.747Z,100183.13
2018-08-04T04:58:52.657Z,100180.66
2018-08-04T05:01:23.585Z,100186.91
2018-08-04T05:03:54.498Z,100179.81
2018-08-04T05:06:25.524Z,100184.35
2018-08-04T05:08:56.501Z,100183.83
2018-08-04T05:11:27.510Z,100183.47
2018-08-04T05:13:58.522Z,100190.85
2018-08-04T05:16:29.541Z,100190.75
2018-08-04T05:19:00.522Z,100196.70
2018-08-04T05:21:32.349Z,100196.09
2018-08-04T05:24:03.385Z,100192.25
2018-08-04T05:26:34.404Z,100192.21
2018-08-04T05:29:05.475Z,100201.22
2018-08-04T05:31:36.521Z,100191.38
2018-08-04T05:34:07.539Z,100203.54
2018-08-04T05:36:38.499Z,100202.69
2018-08-04T05:39:12.822Z,100204.53
2018-08-04T05:41:43.282Z,100194.17
2018-08-04T05:44:14.373Z,100209.26
2018-08-04T05:46:45.425Z,100214.75
2018-08-04T05:49:16.534Z,100205.76
2018-08-04T05:51:47.513Z,100209.63
2018-08-04T05:54:18.645Z,100208.18
2018-08-04T05:56:49.493Z,100208.33
2018-08-04T05:59:20.694Z,100209.98
2018-08-04T06:01:51.597Z,100209.63
2018-08-04T06:04:22.613Z,100202.69
2018-08-04T06:06:53.512Z,100203.22
2018-08-04T06:09:24.531Z,100202.67
2018-08-04T06:11:55.521Z,100202.06
2018-08-04T06:14:26.541Z,100206.31
2018-08-04T06:16:57.482Z,100206.00
2018-08-04T06:19:28.513Z,100205.45
2018-08-04T06:21:59.518Z,100207.70
2018-08-04T06:24:30.498Z,100205.23
2018-08-04T06:27:01.515Z,100205.70
2018-08-04T06:29:32.500Z,100200.23
2018-08-04T06:32:03.453Z,100208.61
2018-08-04T06:34:34.479Z,100211.88
2018-08-04T06:37:05.533Z,100217.55
2018-08-04T06:39:36.506Z,100217.98
2018-08-04T06:42:07.917Z,100220.78
2018-08-04T06:44:38.761Z,100220.20
2018-08-04T06:47:09.667Z,100225.21
2018-08-04T06:49:40.496Z,100219.95
2018-08-04T06:52:11.516Z,100218.89
2018-08-04T06:54:42.449Z,100215.77
2018-08-04T06:57:13.505Z,100224.13
2018-08-04T06:59:44.521Z,100218.06
2018-08-04T07:02:16.009Z,100220.08
2018-08-04T07:04:47.277Z,100217.71
2018-08-04T07:07:18.385Z,100222.28
2018-08-04T07:09:49.494Z,100224.41
2018-08-04T07:12:20.509Z,100219.21
2018-08-04T07:14:51.505Z,100222.70
2018-08-04T07:17:22.497Z,100220.26
2018-08-04T07:19:53.540Z,100217.44
2018-08-04T07:22:24.493Z,100218.48
2018-08-04T07:24:55.452Z,100220.60
2018-08-04T07:27:26.504Z,100215.66
2018-08-04T07:29:57.610Z,100221.71
2018-08-04T07:32:28.575Z,100211.70
2018-08-04T07:34:59.538Z,100215.88
2018-08-04T07:37:30.520Z,100217.80
2018-08-04T07:40:01.522Z,100215.41
2018-08-04T07:42:32.514Z,100209.73
2018-08-04T07:45:03.737Z,100217.71
2018-08-04T07:47:34.626Z,100215.58
2018-08-04T07:50:05.677Z,100219.47
2018-08-04T07:52:36.546Z,100215.33
2018-08-04T07:55:07.478Z,100213.17
2018-08-04T07:57:38.489Z,100210.33
2018-08-04T08:00:11.114Z,100209.51
2018-08-04T08:02:42.762Z,100210.63
2018-08-04T08:05:13.653Z,100206.86
2018-08-04T08:07:44.588Z,100205.63
2018-08-04T08:10:15.555Z,100202.50
2018-08-04T08:12:46.506Z,100206.27
2018-08-04T08:15:17.529Z,100198.08
2018-08-04T08:17:48.493Z,100197.27
2018-08-04T08:20:19.777Z,100194.39
2018-08-04T08:22:50.637Z,100198.50
2018-08-04T08:25:21.528Z,100204.95
2018-08-04T08:27:52.493Z,100201.83
2018-08-04T08:30:23.521Z,100207.05
2018-08-04T08:32:54.519Z,100201.55
2018-08-04T08:35:25.497Z,100203.09
2018-08-04T08:37:56.493Z,100202.41
2018-08-04T08:40:27.519Z,100201.65
2018-08-04T08:42:58.494Z,100201.56
2018-08-04T08:45:29.513Z,100203.43
2018-08-04T08:48:00.477Z,100199.70
2018-08-04T08:50:31.452Z,100198.36
2018-08-04T08:53:02.553Z,100205.88
2018-08-04T08:55:33.474Z,100201.23
2018-08-04T08:58:04.481Z,100196.87
2018-08-04T09:00:35.469Z,100196.84
2018-08-04T09:03:06.586Z,100193.86
2018-08-04T09:05:37.485Z,100188.72
2018-08-04T09:08:08.549Z,100190.36
2018-08-04T09:10:39.502Z,100187.36
2018-08-04T09:13:10.492Z,100187.36
2018-08-04T09:15:41.523Z,100184.42
2018-08-04T09:18:12.452Z,100188.56
2018-08-04T09:20:43.478Z,100193.94
2018-08-04T09:23:14.474Z,100187.20
2018-08-04T09:25:45.445Z,100183.42
2018-08-04T09:28:16.461Z,100176.27
2018-08-04T09:30:47.472Z,100180.36
2018-08-04T09:33:18.478Z,100164.67
2018-08-04T09:35:49.470Z,100172.73
2018-08-04T09:38:20.465Z,100172.45
2018-08-04T09:40:51.461Z,100172.75
2018-08-04T09:43:22.496Z,100162.89
2018-08-04T09:45:53.507Z,100165.19
2018-08-04T09:48:24.472Z,100164.05
2018-08-04T09:50:55.517Z,100157.88
2018-08-04T09:53:26.499Z,100160.13
2018-08-04T09:55:57.523Z,100163.27
2018-08-04T09:58:28.509Z,100158.33
2018-08-04T10:01:04.553Z,100159.14
2018-08-04T10:03:35.509Z,100163.58
2018-08-04T10:06:06.479Z,100160.50
2018-08-04T10:08:37.566Z,100162.11
2018-08-04T10:11:08.533Z,100158.31
2018-08-04T10:13:39.588Z,100162.60
2018-08-04T10:16:10.474Z,100160.83
2018-08-04T10:18:41.485Z,100155.20
2018-08-04T10:21:12.790Z,100157.48
2018-08-04T10:23:43.232Z,100158.94
2018-08-04T10:26:14.392Z,100156.75
2018-08-04T10:28:45.451Z,100159.01
2018-08-04T10:31:16.658Z,100151.23
2018-08-04T10:33:48.555Z,100149.72
2018-08-04T10:36:19.494Z,100155.09
2018-08-04T10:38:50.514Z,100152.48
2018-08-04T10:41:21.493Z,100147.12
2018-08-04T10:43:52.583Z,100149.58
2018-08-04T10:46:23.473Z,100146.97
2018-08-04T10:48:55.253Z,100144.84
2018-08-04T10:51:26.358Z,100151.55
2018-08-04T10:53:57.374Z,100152.25
2018-08-04T10:56:28.621Z,100155.37
2018-08-04T10:58:59.567Z,100154.35
2018-08-04T11:01:30.518Z,100151.34
2018-08-04T11:04:01.506Z,100149.58
2018-08-04T11:06:32.571Z,100146.40
2018-08-04T11:09:03.670Z,100147.77
2018-08-04T11:11:34.568Z,100145.78
2018-08-04T11:14:06.608Z,100149.00
2018-08-04T11:16:37.837Z,100146.94
2018-08-04T11:19:08.284Z,100147.38
2018-08-04T11:21:39.572Z,100143.77
2018-08-04T11:24:10.611Z,100144.63
2018-08-04T11:26:41.539Z,100135.75
2018-08-04T11:29:12.545Z,100136.27
2018-08-04T11:31:43.581Z,100128.83
2018-08-04T11:34:14.531Z,100136.53
2018-08-04T11:36:45.984Z,100134.64
2018-08-04T11:39:17.289Z,100134.75
2018-08-04T11:41:48.417Z,100150.08
2018-08-04T11:44:19.574Z,100137.80
2018-08-04T11:46:50.674Z,100138.02
2018-08-04T11:49:21.579Z,100137.44
2018-08-04T11:51:52.481Z,100139.88
2018-08-04T11:54:23.783Z,100141.19
2018-08-04T11:56:54.236Z,100140.42
2018-08-04T11:59:25.469Z,100136.75
2018-08-04T12:01:56.549Z,100135.75
2018-08-04T12:04:27.612Z,100133.11
2018-08-04T12:06:58.553Z,100126.23
2018-08-04T12:09:29.594Z,100127.83
2018-08-04T12:12:00.484Z,100124.47
2018-08-04T12:14:31.522Z,100127.27
2018-08-04T12:17:02.586Z,100120.11
2018-08-04T12:19:33.586Z,100115.58
2018-08-04T12:22:04.513Z,100111.31
2018-08-04T12:24:35.512Z,100119.34
2018-08-04T12:27:06.630Z,100115.81
2018-08-04T12:29:37.585Z,100110.80
2018-08-04T12:32:08.643Z,100114.31
2018-08-04T12:34:39.561Z,100115.56
2018-08-04T12:37:10.617Z,100112.42
2018-08-04T12:39:41.533Z,100109.88
2018-08-04T12:42:12.533Z,100104.44
2018-08-04T12:44:43.517Z,100104.11
2018-08-04T12:47:14.648Z,100101.20
2018-08-04T12:49:45.520Z,100099.50
2018-08-04T12:52:16.492Z,100095.55
2018-08-04T12:54:47.519Z,100101.49
2018-08-04T12:57:18.704Z,100093.08
2018-08-04T12:59:49.568Z,100084.86
2018-08-04T13:02:20.527Z,100084.50
2018-08-04T13:04:51.561Z,100082.23
2018-08-04T13:07:22.481Z,100081.80
2018-08-04T13:09:53.476Z,100084.63
2018-08-04T13:12:24.500Z,100081.81
2018-08-04T13:14:55.525Z,100070.63
2018-08-04T13:17:26.557Z,100067.10
2018-08-04T13:19:57.520Z,100059.08
2018-08-04T13:22:28.510Z,100072.20
2018-08-04T13:24:59.501Z,100073.83
2018-08-04T13:27:30.513Z,100063.81
2018-08-04T13:30:01.534Z,100059.72
2018-08-04T13:32:32.537Z,100070.67
2018-08-04T13:35:03.513Z,100064.60
2018-08-04T13:37:34.547Z,100077.53
2018-08-04T13:40:05.548Z,100077.83
2018-08-04T13:42:37.242Z,100082.42
2018-08-04T13:45:08.680Z,100098.04
2018-08-04T13:47:39.873Z,100116.95
2018-08-04T13:50:11.258Z,100119.84
2018-08-04T13:52:42.602Z,100109.75
2018-08-04T13:55:14.016Z,100099.02
2018-08-04T13:57:45.544Z,100096.44
2018-08-04T14:00:16.574Z,100099.77
2018-08-04T14:02:47.500Z,100106.36
2018-08-04T14:05:18.480Z,100099.97
2018-08-04T14:07:49.509Z,100100.27
2018-08-04T14:10:20.507Z,100097.02
2018-08-04T14:12:51.527Z,100078.76
2018-08-04T14:15:22.551Z,100069.30
2018-08-04T14:17:53.541Z,100080.52
2018-08-04T14:20:24.509Z,100087.53
2018-08-04T14:22:55.475Z,100103.80
2018-08-04T14:25:26.510Z,100099.95
2018-08-04T14:27:57.484Z,100103.06
2018-08-04T14:30:28.489Z,100106.78
2018-08-04T14:32:59.469Z,100095.20
2018-08-04T14:35:30.484Z,100088.05
2018-08-04T14:38:01.510Z,100086.59
2018-08-04T14:40:32.484Z,100086.44
2018-08-04T14:43:03.483Z,100087.88
2018-08-04T14:45:34.552Z,100084.84
2018-08-04T14:48:05.543Z,100073.38
2018-08-04T14:50:36.549Z,100071.19
2018-08-04T14:53:07.529Z,100071.08
2018-08-04T14:55:38.531Z,100070.35
2018-08-04T14:58:09.509Z,100068.75
2018-08-04T15:00:40.514Z,100063.46
2018-08-04T15:03:11.499Z,100055.88
2018-08-04T15:05:42.473Z,100051.64
2018-08-04T15:08:13.480Z,100051.44
2018-08-04T15:10:44.502Z,100049.69
2018-08-04T15:13:15.769Z,100047.62
2018-08-04T15:15:46.688Z,100044.95
2018-08-04T15:18:17.520Z,100045.22
2018-08-04T15:20:48.622Z,100045.11
2018-08-04T15:23:19.518Z,100043.22
2018-08-04T15:25:50.513Z,100033.83
2018-08-04T15:28:21.518Z,100031.56
2018-08-04T15:30:52.509Z,100033.23
2018-08-04T15:33:23.509Z,100027.87
2018-08-04T15:35:54.463Z,100030.08
2018-08-04T15:38:25.613Z,100025.84
2018-08-04T15:40:56.533Z,100027.25
2018-08-04T15:43:27.482Z,100030.69
2018-08-04T15:45:58.515Z,100027.88
2018-08-04T15:48:29.476Z,100029.42
2018-08-04T15:51:00.526Z,100022.78
2018-08-04T15:53:31.498Z,100017.30
2018-08-04T15:56:02.629Z,100016.50
2018-08-04T15:58:33.561Z,100021.98
2018-08-04T16:01:04.526Z,100022.73
2018-08-04T16:03:35.661Z,100015.09
2018-08-04T16:06:06.496Z,100017.77
2018-08-04T16:08:37.447Z,100020.19
2018-08-04T16:11:08.474Z,100013.47
2018-08-04T16:13:39.457Z,100016.13
2018-08-04T16:16:10.501Z,100016.87
2018-08-04T16:18:41.517Z,100011.50
2018-08-04T16:21:12.489Z,100018.27
2018-08-04T16:23:43.487Z,100016.36
2018-08-04T16:26:14.524Z,100014.09
2018-08-04T16:28:45.506Z,100009.17
2018-08-04T16:31:16.530Z,100015.22
2018-08-04T16:33:47.522Z,100010.74
2018-08-04T16:36:18.520Z,100015.03
2018-08-04T16:38:49.504Z,100009.75
2018-08-04T16:41:20.533Z,100009.50
2018-08-04T16:43:51.505Z,100012.06
2018-08-04T16:46:22.492Z,100012.38
2018-08-04T16:48:54.297Z,100018.92
2018-08-04T16:51:25.385Z,100014.55
2018-08-04T16:53:56.473Z,100020.97
2018-08-04T16:56:27.576Z,100021.55
2018-08-04T16:58:58.561Z,100020.77
2018-08-04T17:01:29.538Z,100021.84
2018-08-04T17:04:00.541Z,100023.45
2018-08-04T17:06:32.321Z,100020.22
2018-08-04T17:09:03.489Z,100029.67
2018-08-04T17:11:34.522Z,100020.64
2018-08-04T17:14:05.785Z,100032.41
2018-08-04T17:16:40.730Z,100030.27
2018-08-04T17:19:11.606Z,100036.55
2018-08-04T17:21:42.656Z,100026.47
2018-08-04T17:24:13.585Z,100022.33
2018-08-04T17:26:44.527Z,100025.64
2018-08-04T17:30:28.352Z,100030.89
2018-08-04T17:32:59.356Z,100033.87
2018-08-04T17:35:30.383Z,100040.73
2018-08-04T17:38:01.598Z,100039.63
2018-08-04T17:40:32.691Z,100030.05
2018-08-04T17:43:03.578Z,100041.56
2018-08-04T17:45:34.537Z,100041.86
2018-08-04T17:48:05.745Z,100040.19
2018-08-04T17:50:36.563Z,100046.00
2018-08-04T17:53:07.524Z,100050.64
2018-08-04T17:55:39.325Z,100050.64
2018-08-04T17:58:10.569Z,100055.58
2018-08-04T18:00:41.512Z,100049.84
2018-08-04T18:03:12.513Z,100057.50
2018-08-04T18:05:43.512Z,100064.64
2018-08-04T18:08:14.490Z,100060.23
2018-08-04T18:10:45.509Z,100060.53
2018-08-04T18:13:16.494Z,100072.28
2018-08-04T18:15:47.493Z,100061.06
2018-08-04T18:18:18.488Z,100067.35
2018-08-04T18:20:49.611Z,100064.07
2018-08-04T18:23:20.542Z,100071.46
2018-08-04T18:25:51.473Z,100070.38
2018-08-04T18:28:22.472Z,100075.30
2018-08-04T18:30:53.625Z,100076.94
2018-08-04T18:33:24.619Z,100081.86
2018-08-04T18:35:56.726Z,100077.41
2018-08-04T18:38:27.704Z,100081.25
2018-08-04T18:41:00.601Z,100076.58
2018-08-04T18:43:31.641Z,100082.00
2018-08-04T18:46:02.609Z,100089.09
2018-08-04T18:48:33.603Z,100093.09
2018-08-04T18:51:04.593Z,100096.84
2018-08-04T18:53:35.605Z,100100.34
2018-08-04T18:56:07.021Z,100105.73
2018-08-04T18:58:39.702Z,100108.78
2018-08-04T19:01:11.133Z,100110.39
2018-08-04T19:03:56.002Z,100108.65
2018-08-04T19:06:27.636Z,100114.83
2018-08-04T19:08:59.007Z,100112.93
2018-08-04T19:11:31.045Z,100121.03
2018-08-04T19:14:02.947Z,100116.94
2018-08-04T19:16:34.758Z,100116.67
2018-08-04T19:19:06.610Z,100125.03
2018-08-04T19:21:39.012Z,100125.80
2018-08-04T19:24:10.432Z,100129.89
2018-08-04T19:26:41.656Z,100130.78
2018-08-04T19:29:12.662Z,100136.80
2018-08-04T19:31:43.611Z,100132.70
2018-08-04T19:34:14.708Z,100140.81
2018-08-04T19:36:47.202Z,100141.56
2018-08-04T19:39:18.398Z,100143.11
2018-08-04T19:41:49.564Z,100147.91
2018-08-04T19:44:20.586Z,100150.81
2018-08-04T19:46:51.657Z,100151.20
2018-08-04T19:49:22.702Z,100156.25
2018-08-04T19:51:53.566Z,100161.34
2018-08-04T19:54:24.579Z,100165.53
2018-08-04T19:56:55.674Z,100163.86
2018-08-04T19:59:27.193Z,100171.98
2018-08-04T20:01:58.398Z,100170.09
2018-08-04T20:04:29.526Z,100176.53
2018-08-04T20:07:00.506Z,100182.51
2018-08-04T20:09:31.579Z,100183.85
2018-08-04T20:12:02.537Z,100177.13
2018-08-04T20:14:33.514Z,100193.47
2018-08-04T20:17:04.533Z,100189.59
2018-08-04T20:19:35.477Z,100191.78
2018-08-04T20:22:16.288Z,100199.45
2018-08-04T20:24:47.460Z,100193.07
2018-08-04T20:27:18.556Z,100202.30
2018-08-04T20:29:49.669Z,100200.66
2018-08-04T20:32:20.661Z,100205.73
2018-08-04T20:34:52.628Z,100200.78
2018-08-04T20:37:23.574Z,100205.08
2018-08-04T20:39:54.703Z,100201.69
2018-08-04T20:42:25.598Z,100206.13
2018-08-04T20:44:56.561Z,100206.91
2018-08-04T20:47:27.525Z,100210.33
2018-08-04T20:49:58.539Z,100212.27
2018-08-04T20:52:29.488Z,100217.32
2018-08-04T20:55:00.540Z,100226.52
2018-08-04T20:57:31.518Z,100219.13
2018-08-04T21:00:02.535Z,100216.91
2018-08-04T21:02:33.570Z,100218.23
2018-08-04T21:05:04.501Z,100216.95
2018-08-04T21:07:35.500Z,100214.20
2018-08-04T21:10:06.596Z,100219.98
2018-08-04T21:12:37.508Z,100214.05
2018-08-04T21:15:08.621Z,100218.12
2018-08-04T21:17:39.598Z,100214.61
2018-08-04T21:20:10.489Z,100217.97
2018-08-04T21:22:41.775Z,100216.52
2018-08-04T21:25:12.601Z,100226.53
2018-08-04T21:27:43.620Z,100208.69
2018-08-04T21:30:14.634Z,100217.28
2018-08-04T21:32:45.633Z,100216.78
2018-08-04T21:35:16.550Z,100228.33
2018-08-04T21:37:47.481Z,100230.59
2018-08-04T21:40:18.602Z,100240.18
2018-08-04T21:42:49.481Z,100240.18
2018-08-04T21:45:20.519Z,100236.87
2018-08-04T21:47:51.501Z,100246.91
2018-08-04T21:50:22.527Z,100243.19
2018-08-04T21:52:53.551Z,100242.23
2018-08-04T21:55:24.550Z,100247.85
2018-08-04T21:57:55.541Z,100242.23
2018-08-04T22:00:26.648Z,100243.70
2018-08-04T22:03:00.640Z,100241.75
2018-08-04T22:05:32.017Z,100241.47
2018-08-04T22:08:26.394Z,100240.93
2018-08-04T22:10:58.021Z,100245.08
2018-08-04T22:13:29.291Z,100246.94
2018-08-04T22:16:00.400Z,100253.03
2018-08-04T22:18:31.522Z,100245.66
2018-08-04T22:21:02.545Z,100253.97
2018-08-04T22:23:33.499Z,100246.51
2018-08-04T22:26:04.634Z,100252.30
2018-08-04T22:28:35.528Z,100245.52
2018-08-04T22:31:06.654Z,100256.13
2018-08-04T22:33:37.628Z,100251.79
2018-08-04T22:36:08.570Z,100265.09
2018-08-04T22:38:39.479Z,100263.37
2018-08-04T22:41:10.532Z,100262.09
2018-08-04T22:43:41.498Z,100264.88
2018-08-04T22:46:16.905Z,100267.71
2018-08-04T22:48:49.432Z,100268.31
2018-08-04T22:51:28.072Z,100277.23
2018-08-04T22:53:59.385Z,100277.73
2018-08-04T22:56:30.501Z,100274.37
2018-08-04T22:59:01.478Z,100275.67
2018-08-04T23:01:32.518Z,100265.34
2018-08-04T23:04:03.537Z,100270.55
2018-08-04T23:06:34.490Z,100265.96
2018-08-04T23:09:07.587Z,100266.34
2018-08-04T23:11:38.521Z,100266.22
2018-08-04T23:14:09.476Z,100263.79
2018-08-04T23:16:40.493Z,100278.25
2018-08-04T23:19:11.489Z,100271.88
2018-08-04T23:21:42.505Z,100274.39
2018-08-04T23:24:13.485Z,100279.76
2018-08-04T23:26:44.509Z,100278.31
2018-08-04T23:29:15.477Z,100284.73
2018-08-04T23:31:46.522Z,100281.41
2018-08-04T23:34:17.469Z,100283.84
2018-08-04T23:36:48.496Z,100284.28
2018-08-04T23:39:19.495Z,100285.81
2018-08-04T23:41:50.517Z,100288.11
2018-08-04T23:44:21.468Z,100295.21
2018-08-04T23:46:52.480Z,100286.98
2018-08-04T23:49:24.461Z,100296.10
2018-08-04T23:51:55.485Z,100291.28
2018-08-04T23:54:26.490Z,100295.87
2018-08-04T23:56:57.463Z,100286.00
2018-08-04T23:59:28.476Z,100292.12
